Bocayna Express — ECEA — position and weather

sailwx.info

Track history (hours):
 
Tides and Currents Weather Stations Pressure Air Temp Water Temp Dewpoint Dewpoint Depression Visibility Wind Speed Wind Dir Waves Ship Positions

Bocayna Express

Last reported at 2017-Oct-17 16:27 UTC. Time now 2017-Oct-17 20:35 UTC.
Position N 28°52' W 013°50'.

Length 20 m; draft 2.2 m.

Type: High speed craft. MMSI: 224197000.

Date/timePositionNaut miles runAvg speedWind from/ knotsBaromVisibWave heightAir tempDewpointWater temp
2017-Oct-17 16:27N 28°52' W 013°50'6 5.7
2017-Oct-17 15:19N 28°45' W 013°51'618.9
2017-Oct-17 14:59N 28°52' W 013°50'0 0.0
2017-Oct-17 14:30N 28°52' W 013°50'7 6.3
2017-Oct-17 13:25N 28°45' W 013°51'716.2
2017-Oct-17 13:00N 28°52' W 013°50'0 0.0
2017-Oct-17 12:30N 28°52' W 013°50'0 0.0
2017-Oct-17 12:00N 28°52' W 013°50'0 0.0
2017-Oct-17 11:30N 28°52' W 013°50'6 2.8
2017-Oct-17 09:20N 28°46' W 013°51'4 5.4
2017-Oct-17 08:34N 28°50' W 013°50'5 0.3
2017-Oct-16 17:19N 28°45' W 013°51'721.5
2017-Oct-16 17:00N 28°52' W 013°50'0 0.3
2017-Oct-16 16:27N 28°52' W 013°50'6 5.6
2017-Oct-16 15:18N 28°45' W 013°51'2 0.3
2017-Oct-16 09:15N 28°47' W 013°51'519.2
2017-Oct-16 09:00N 28°52' W 013°50'1 2.1
2017-Oct-16 08:30N 28°51' W 013°50'5 7.1
2017-Oct-16 07:48N 28°46' W 013°51'621.3
2017-Oct-16 07:30N 28°52' W 013°50'612.0
2017-Oct-16 07:00N 28°46' W 013°51'5 8.7
2017-Oct-16 06:22N 28°51' W 013°50'0 0.6
2017-Oct-16 06:00N 28°51' W 013°50'4 0.4
2017-Oct-15 19:13N 28°47' W 013°51'521.3
2017-Oct-15 19:00N 28°52' W 013°50'0 0.0
2017-Oct-15 18:30N 28°52' W 013°50'7 5.6
2017-Oct-15 17:20N 28°45' W 013°51'719.7
2017-Oct-15 17:01N 28°52' W 013°50'0 0.0
2017-Oct-15 16:30N 28°52' W 013°50'6 0.9
2017-Oct-15 09:27N 28°45' W 013°51'5 5.9
2017-Oct-15 08:32N 28°51' W 013°50'123.9
2017-Oct-15 08:30N 28°50' W 013°50'2 0.1
2017-Oct-14 14:55N 28°52' W 013°50'0 0.4
2017-Oct-14 14:30N 28°52' W 013°50'2 0.1
2017-Oct-13 07:39N 28°49' W 013°50'213.6
2017-Oct-13 07:29N 28°52' W 013°50'6 0.5
2017-Oct-12 19:21N 28°46' W 013°51'6 7.8
2017-Oct-12 18:34N 28°52' W 013°50'0 0.0
2017-Oct-12 18:29N 28°52' W 013°50'6 5.4
2017-Oct-12 17:21N 28°45' W 013°51'6 8.2
2017-Oct-12 16:35N 28°52' W 013°50'0 0.0
2017-Oct-12 16:30N 28°52' W 013°50'6 5.4
2017-Oct-12 15:21N 28°45' W 013°51'6 8.5
2017-Oct-12 14:37N 28°52' W 013°50'0 0.8
2017-Oct-12 14:26N 28°52' W 013°50'6 1.3
2017-Oct-12 09:31N 28°45' W 013°51'120.6
2017-Oct-12 09:29N 28°46' W 013°51'611.5
2017-Oct-12 09:00N 28°52' W 013°50'2 3.1
2017-Oct-12 08:30N 28°50' W 013°51'4 0.3
2017-Oct-11 19:18N 28°46' W 013°51'5 5.4
2017-Oct-11 18:20N 28°51' W 013°50'2 2.0
2017-Oct-11 17:12N 28°49' W 013°50'3 0.1
2017-Oct-10 13:19N 28°45' W 013°51'619.8
2017-Oct-10 13:00N 28°52' W 013°50'0 0.1
2017-Oct-10 11:24N 28°52' W 013°50'  
Track history (hours):
 
Tides and Currents Weather Stations Pressure Air Temp Water Temp Dewpoint Dewpoint Depression Visibility Wind Speed Wind Dir Waves Ship Positions

Bocayna Express

Last reported at 2017-Oct-17 16:27 UTC. Time now 2017-Oct-17 20:35 UTC.
Position N 28°52' W 013°50'.

Length 20 m; draft 2.2 m.

Type: High speed craft. MMSI: 224197000.

Date/timePositionNaut miles runAvg speedWind from/ knotsBaromVisibWave heightAir tempDewpointWater temp
2017-Oct-17 16:27N 28°52' W 013°50'6 5.7
2017-Oct-17 15:19N 28°45' W 013°51'618.9
2017-Oct-17 14:59N 28°52' W 013°50'0 0.0
2017-Oct-17 14:30N 28°52' W 013°50'7 6.3
2017-Oct-17 13:25N 28°45' W 013°51'716.2
2017-Oct-17 13:00N 28°52' W 013°50'0 0.0
2017-Oct-17 12:30N 28°52' W 013°50'0 0.0
2017-Oct-17 12:00N 28°52' W 013°50'0 0.0
2017-Oct-17 11:30N 28°52' W 013°50'6 2.8
2017-Oct-17 09:20N 28°46' W 013°51'4 5.4
2017-Oct-17 08:34N 28°50' W 013°50'5 0.3
2017-Oct-16 17:19N 28°45' W 013°51'721.5
2017-Oct-16 17:00N 28°52' W 013°50'0 0.3
2017-Oct-16 16:27N 28°52' W 013°50'6 5.6
2017-Oct-16 15:18N 28°45' W 013°51'2 0.3
2017-Oct-16 09:15N 28°47' W 013°51'519.2
2017-Oct-16 09:00N 28°52' W 013°50'1 2.1
2017-Oct-16 08:30N 28°51' W 013°50'5 7.1
2017-Oct-16 07:48N 28°46' W 013°51'621.3
2017-Oct-16 07:30N 28°52' W 013°50'612.0
2017-Oct-16 07:00N 28°46' W 013°51'5 8.7
2017-Oct-16 06:22N 28°51' W 013°50'0 0.6
2017-Oct-16 06:00N 28°51' W 013°50'4 0.4
2017-Oct-15 19:13N 28°47' W 013°51'521.3
2017-Oct-15 19:00N 28°52' W 013°50'0 0.0
2017-Oct-15 18:30N 28°52' W 013°50'7 5.6
2017-Oct-15 17:20N 28°45' W 013°51'719.7
2017-Oct-15 17:01N 28°52' W 013°50'0 0.0
2017-Oct-15 16:30N 28°52' W 013°50'6 0.9
2017-Oct-15 09:27N 28°45' W 013°51'5 5.9
2017-Oct-15 08:32N 28°51' W 013°50'123.9
2017-Oct-15 08:30N 28°50' W 013°50'2 0.1
2017-Oct-14 14:55N 28°52' W 013°50'0 0.4
2017-Oct-14 14:30N 28°52' W 013°50'2 0.1
2017-Oct-13 07:39N 28°49' W 013°50'213.6
2017-Oct-13 07:29N 28°52' W 013°50'6 0.5
2017-Oct-12 19:21N 28°46' W 013°51'6 7.8
2017-Oct-12 18:34N 28°52' W 013°50'0 0.0
2017-Oct-12 18:29N 28°52' W 013°50'6 5.4
2017-Oct-12 17:21N 28°45' W 013°51'6 8.2
2017-Oct-12 16:35N 28°52' W 013°50'0 0.0
2017-Oct-12 16:30N 28°52' W 013°50'6 5.4
2017-Oct-12 15:21N 28°45' W 013°51'6 8.5
2017-Oct-12 14:37N 28°52' W 013°50'0 0.8
2017-Oct-12 14:26N 28°52' W 013°50'6 1.3
2017-Oct-12 09:31N 28°45' W 013°51'120.6
2017-Oct-12 09:29N 28°46' W 013°51'611.5
2017-Oct-12 09:00N 28°52' W 013°50'2 3.1
2017-Oct-12 08:30N 28°50' W 013°51'4 0.3
2017-Oct-11 19:18N 28°46' W 013°51'5 5.4
2017-Oct-11 18:20N 28°51' W 013°50'2 2.0
2017-Oct-11 17:12N 28°49' W 013°50'3 0.1
2017-Oct-10 13:19N 28°45' W 013°51'619.8
2017-Oct-10 13:00N 28°52' W 013°50'0 0.1
2017-Oct-10 11:24N 28°52' W 013°50'  

Dump ship's entire track history